sensor_id;sensor_type;location;lat;lon;timestamp;temperature;humidity
33382;DHT22;21342;48.786;9.166;2022-11-20T00:00:09;6.60;99.90
33382;DHT22;21342;48.786;9.166;2022-11-20T00:02:38;6.60;99.90
33382;DHT22;21342;48.786;9.166;2022-11-20T00:05:06;6.60;99.90
33382;DHT22;21342;48.786;9.166;2022-11-20T00:07:34;6.60;99.90
33382;DHT22;21342;48.786;9.166;2022-11-20T00:10:01;6.60;99.90
33382;DHT22;21342;48.786;9.166;2022-11-20T00:12:28;6.60;99.90
33382;DHT22;21342;48.786;9.166;2022-11-20T00:14:56;6.60;99.90
33382;DHT22;21342;48.786;9.166;2022-11-20T00:17:23;6.70;99.90
33382;DHT22;21342;48.786;9.166;2022-11-20T00:19:52;6.80;99.90
33382;DHT22;21342;48.786;9.166;2022-11-20T00:22:19;6.90;99.90
33382;DHT22;21342;48.786;9.166;2022-11-20T00:24:46;6.90;99.90
33382;DHT22;21342;48.786;9.166;2022-11-20T00:27:13;7.00;99.90
33382;DHT22;21342;48.786;9.166;2022-11-20T00:29:41;7.00;99.90
33382;DHT22;21342;48.786;9.166;2022-11-20T00:32:08;7.00;99.90
33382;DHT22;21342;48.786;9.166;2022-11-20T00:34:35;7.00;99.90
33382;DHT22;21342;48.786;9.166;2022-11-20T00:37:04;6.90;99.90
33382;DHT22;21342;48.786;9.166;2022-11-20T00:39:31;6.90;99.90
33382;DHT22;21342;48.786;9.166;2022-11-20T00:41:58;6.90;99.90
33382;DHT22;21342;48.786;9.166;2022-11-20T00:44:26;6.90;99.90
33382;DHT22;21342;48.786;9.166;2022-11-20T00:46:53;6.90;99.90
33382;DHT22;21342;48.786;9.166;2022-11-20T00:49:20;6.90;99.90
33382;DHT22;21342;48.786;9.166;2022-11-20T00:51:48;6.90;99.90
33382;DHT22;21342;48.786;9.166;2022-11-20T00:54:16;7.00;99.90
33382;DHT22;21342;48.786;9.166;2022-11-20T00:56:43;6.90;99.90
33382;DHT22;21342;48.786;9.166;2022-11-20T00:59:11;6.90;99.90
33382;DHT22;21342;48.786;9.166;2022-11-20T01:01:38;6.90;99.90
33382;DHT22;21342;48.786;9.166;2022-11-20T01:04:06;6.90;99.90
33382;DHT22;21342;48.786;9.166;2022-11-20T01:06:34;7.00;99.90
33382;DHT22;21342;48.786;9.166;2022-11-20T01:09:05;7.00;99.90
33382;DHT22;21342;48.786;9.166;2022-11-20T01:11:36;7.00;99.90
33382;DHT22;21342;48.786;9.166;2022-11-20T01:14:04;7.00;99.90
33382;DHT22;21342;48.786;9.166;2022-11-20T01:16:34;7.10;99.90
33382;DHT22;21342;48.786;9.166;2022-11-20T01:19:03;7.10;99.90
33382;DHT22;21342;48.786;9.166;2022-11-20T01:21:33;7.20;99.90
33382;DHT22;21342;48.786;9.166;2022-11-20T01:24:01;7.20;99.90
33382;DHT22;21342;48.786;9.166;2022-11-20T01:26:31;7.20;99.90
33382;DHT22;21342;48.786;9.166;2022-11-20T01:29:01;7.00;99.90
33382;DHT22;21342;48.786;9.166;2022-11-20T01:31:30;7.10;99.90
33382;DHT22;21342;48.786;9.166;2022-11-20T01:34:00;7.10;99.90
33382;DHT22;21342;48.786;9.166;2022-11-20T01:36:29;7.00;99.90
33382;DHT22;21342;48.786;9.166;2022-11-20T01:38:58;7.00;99.90
33382;DHT22;21342;48.786;9.166;2022-11-20T01:41:27;6.90;99.90
33382;DHT22;21342;48.786;9.166;2022-11-20T01:44:16;7.00;99.90
33382;DHT22;21342;48.786;9.166;2022-11-20T01:46:52;7.00;99.90
33382;DHT22;21342;48.786;9.166;2022-11-20T01:49:24;6.90;99.90
33382;DHT22;21342;48.786;9.166;2022-11-20T01:51:56;6.80;99.90
33382;DHT22;21342;48.786;9.166;2022-11-20T01:54:29;6.80;99.90
33382;DHT22;21342;48.786;9.166;2022-11-20T01:56:59;6.70;99.90
33382;DHT22;21342;48.786;9.166;2022-11-20T01:59:29;6.70;99.90
33382;DHT22;21342;48.786;9.166;2022-11-20T02:01:57;6.60;99.90
33382;DHT22;21342;48.786;9.166;2022-11-20T02:04:25;6.60;99.90
33382;DHT22;21342;48.786;9.166;2022-11-20T02:07:00;6.60;99.90
33382;DHT22;21342;48.786;9.166;2022-11-20T02:09:27;6.50;99.90
33382;DHT22;21342;48.786;9.166;2022-11-20T02:11:55;6.50;99.90
33382;DHT22;21342;48.786;9.166;2022-11-20T02:14:23;6.50;99.90
33382;DHT22;21342;48.786;9.166;2022-11-20T02:16:51;6.60;99.90
33382;DHT22;21342;48.786;9.166;2022-11-20T02:19:23;6.60;99.90
33382;DHT22;21342;48.786;9.166;2022-11-20T02:21:59;6.70;99.90
33382;DHT22;21342;48.786;9.166;2022-11-20T02:24:28;6.70;99.90
33382;DHT22;21342;48.786;9.166;2022-11-20T02:26:59;6.70;99.90
33382;DHT22;21342;48.786;9.166;2022-11-20T02:29:35;6.60;99.90
33382;DHT22;21342;48.786;9.166;2022-11-20T02:32:03;6.60;99.90
33382;DHT22;21342;48.786;9.166;2022-11-20T02:34:31;6.50;99.90
33382;DHT22;21342;48.786;9.166;2022-11-20T02:36:59;6.50;99.90
33382;DHT22;21342;48.786;9.166;2022-11-20T02:39:28;6.60;99.90
33382;DHT22;21342;48.786;9.166;2022-11-20T02:41:56;6.50;99.90
33382;DHT22;21342;48.786;9.166;2022-11-20T02:44:23;6.40;99.90
33382;DHT22;21342;48.786;9.166;2022-11-20T02:46:51;6.50;99.90
33382;DHT22;21342;48.786;9.166;2022-11-20T02:49:18;6.50;99.90
33382;DHT22;21342;48.786;9.166;2022-11-20T02:51:45;6.60;99.90
33382;DHT22;21342;48.786;9.166;2022-11-20T02:54:12;6.70;99.90
33382;DHT22;21342;48.786;9.166;2022-11-20T02:56:41;6.60;99.90
33382;DHT22;21342;48.786;9.166;2022-11-20T02:59:09;6.70;99.90
33382;DHT22;21342;48.786;9.166;2022-11-20T03:01:36;6.70;99.90
33382;DHT22;21342;48.786;9.166;2022-11-20T03:04:04;6.70;99.90
33382;DHT22;21342;48.786;9.166;2022-11-20T03:06:32;6.70;99.90
33382;DHT22;21342;48.786;9.166;2022-11-20T03:08:59;6.70;99.90
33382;DHT22;21342;48.786;9.166;2022-11-20T03:11:26;6.70;99.90
33382;DHT22;21342;48.786;9.166;2022-11-20T03:13:55;6.80;99.90
33382;DHT22;21342;48.786;9.166;2022-11-20T03:16:23;6.80;99.90
33382;DHT22;21342;48.786;9.166;2022-11-20T03:18:52;6.80;99.90
33382;DHT22;21342;48.786;9.166;2022-11-20T03:21:19;6.90;99.90
33382;DHT22;21342;48.786;9.166;2022-11-20T03:23:47;6.90;99.90
33382;DHT22;21342;48.786;9.166;2022-11-20T03:26:16;7.00;99.90
33382;DHT22;21342;48.786;9.166;2022-11-20T03:28:47;6.90;99.90
33382;DHT22;21342;48.786;9.166;2022-11-20T03:31:17;6.90;99.90
33382;DHT22;21342;48.786;9.166;2022-11-20T03:33:45;6.90;99.90
33382;DHT22;21342;48.786;9.166;2022-11-20T03:36:14;6.90;99.90
33382;DHT22;21342;48.786;9.166;2022-11-20T03:38:42;6.80;99.90
33382;DHT22;21342;48.786;9.166;2022-11-20T03:41:11;6.70;99.90
33382;DHT22;21342;48.786;9.166;2022-11-20T03:43:39;6.70;99.90
33382;DHT22;21342;48.786;9.166;2022-11-20T03:46:07;6.60;99.90
33382;DHT22;21342;48.786;9.166;2022-11-20T03:48:36;6.60;99.90
33382;DHT22;21342;48.786;9.166;2022-11-20T03:51:08;6.60;99.90
33382;DHT22;21342;48.786;9.166;2022-11-20T03:53:35;6.60;99.90
33382;DHT22;21342;48.786;9.166;2022-11-20T03:56:03;6.60;99.90
33382;DHT22;21342;48.786;9.166;2022-11-20T03:58:30;6.50;99.90
33382;DHT22;21342;48.786;9.166;2022-11-20T04:01:04;6.40;99.90
33382;DHT22;21342;48.786;9.166;2022-11-20T04:03:32;6.40;99.90
33382;DHT22;21342;48.786;9.166;2022-11-20T04:06:04;6.60;99.90
33382;DHT22;21342;48.786;9.166;2022-11-20T04:08:31;6.50;99.90
33382;DHT22;21342;48.786;9.166;2022-11-20T04:11:09;6.40;99.90
33382;DHT22;21342;48.786;9.166;2022-11-20T04:13:36;6.30;99.90
33382;DHT22;21342;48.786;9.166;2022-11-20T04:16:04;6.30;99.90
33382;DHT22;21342;48.786;9.166;2022-11-20T04:18:32;6.30;99.90
33382;DHT22;21342;48.786;9.166;2022-11-20T04:21:00;6.40;99.90
33382;DHT22;21342;48.786;9.166;2022-11-20T04:23:28;6.30;99.90
33382;DHT22;21342;48.786;9.166;2022-11-20T04:26:01;6.40;99.90
33382;DHT22;21342;48.786;9.166;2022-11-20T04:28:29;6.30;99.90
33382;DHT22;21342;48.786;9.166;2022-11-20T04:31:02;6.40;99.90
33382;DHT22;21342;48.786;9.166;2022-11-20T04:33:30;6.30;99.90
33382;DHT22;21342;48.786;9.166;2022-11-20T04:36:01;6.20;99.90
33382;DHT22;21342;48.786;9.166;2022-11-20T04:38:30;6.30;99.90
33382;DHT22;21342;48.786;9.166;2022-11-20T04:40:58;6.30;99.90
33382;DHT22;21342;48.786;9.166;2022-11-20T04:43:26;6.30;99.90
33382;DHT22;21342;48.786;9.166;2022-11-20T04:45:53;6.20;99.90
33382;DHT22;21342;48.786;9.166;2022-11-20T04:48:21;6.20;99.90
33382;DHT22;21342;48.786;9.166;2022-11-20T04:50:49;6.20;99.90
33382;DHT22;21342;48.786;9.166;2022-11-20T04:53:16;6.20;99.90
33382;DHT22;21342;48.786;9.166;2022-11-20T04:55:45;6.20;99.90
33382;DHT22;21342;48.786;9.166;2022-11-20T04:58:13;6.20;99.90
33382;DHT22;21342;48.786;9.166;2022-11-20T05:00:40;6.30;99.90
33382;DHT22;21342;48.786;9.166;2022-11-20T05:03:07;6.30;99.90
33382;DHT22;21342;48.786;9.166;2022-11-20T05:05:35;6.40;99.90
33382;DHT22;21342;48.786;9.166;2022-11-20T05:08:02;6.40;99.90
33382;DHT22;21342;48.786;9.166;2022-11-20T05:10:30;6.50;99.90
33382;DHT22;21342;48.786;9.166;2022-11-20T05:12:58;6.50;99.90
33382;DHT22;21342;48.786;9.166;2022-11-20T05:15:26;6.50;99.90
33382;DHT22;21342;48.786;9.166;2022-11-20T05:17:53;6.50;99.90
33382;DHT22;21342;48.786;9.166;2022-11-20T05:20:20;6.50;99.90
33382;DHT22;21342;48.786;9.166;2022-11-20T05:22:48;6.60;99.90
33382;DHT22;21342;48.786;9.166;2022-11-20T05:25:15;6.60;99.90
33382;DHT22;21342;48.786;9.166;2022-11-20T05:27:42;6.70;99.90
33382;DHT22;21342;48.786;9.166;2022-11-20T05:30:13;6.60;99.90
33382;DHT22;21342;48.786;9.166;2022-11-20T05:32:40;6.70;99.90
33382;DHT22;21342;48.786;9.166;2022-11-20T05:35:07;6.80;99.90
33382;DHT22;21342;48.786;9.166;2022-11-20T05:37:35;6.80;99.90
33382;DHT22;21342;48.786;9.166;2022-11-20T05:40:03;6.80;99.90
33382;DHT22;21342;48.786;9.166;2022-11-20T05:42:30;6.70;99.90
33382;DHT22;21342;48.786;9.166;2022-11-20T05:44:58;6.80;99.90
33382;DHT22;21342;48.786;9.166;2022-11-20T05:47:28;6.70;99.90
33382;DHT22;21342;48.786;9.166;2022-11-20T05:49:58;6.70;99.90
33382;DHT22;21342;48.786;9.166;2022-11-20T05:52:28;6.70;99.90
33382;DHT22;21342;48.786;9.166;2022-11-20T05:54:55;6.70;99.90
33382;DHT22;21342;48.786;9.166;2022-11-20T05:57:22;6.70;99.90
33382;DHT22;21342;48.786;9.166;2022-11-20T05:59:50;6.70;99.90
33382;DHT22;21342;48.786;9.166;2022-11-20T06:02:17;6.70;99.90
33382;DHT22;21342;48.786;9.166;2022-11-20T06:04:46;6.70;99.90
33382;DHT22;21342;48.786;9.166;2022-11-20T06:07:13;6.80;99.90
33382;DHT22;21342;48.786;9.166;2022-11-20T06:09:40;6.80;99.90
33382;DHT22;21342;48.786;9.166;2022-11-20T06:12:07;6.80;99.90
33382;DHT22;21342;48.786;9.166;2022-11-20T06:14:35;6.80;99.90
33382;DHT22;21342;48.786;9.166;2022-11-20T06:17:02;6.80;99.90
33382;DHT22;21342;48.786;9.166;2022-11-20T06:19:29;6.80;99.90
33382;DHT22;21342;48.786;9.166;2022-11-20T06:21:58;6.80;99.90
33382;DHT22;21342;48.786;9.166;2022-11-20T06:24:25;6.80;99.90
33382;DHT22;21342;48.786;9.166;2022-11-20T06:26:53;6.80;99.90
33382;DHT22;21342;48.786;9.166;2022-11-20T06:29:20;6.80;99.90
33382;DHT22;21342;48.786;9.166;2022-11-20T06:31:47;6.90;99.90
33382;DHT22;21342;48.786;9.166;2022-11-20T06:34:14;7.00;99.90
33382;DHT22;21342;48.786;9.166;2022-11-20T06:36:46;7.00;99.90
33382;DHT22;21342;48.786;9.166;2022-11-20T06:39:15;7.10;99.90
33382;DHT22;21342;48.786;9.166;2022-11-20T06:41:42;7.20;99.90
33382;DHT22;21342;48.786;9.166;2022-11-20T06:44:09;7.10;99.90
33382;DHT22;21342;48.786;9.166;2022-11-20T06:46:37;7.10;99.90
33382;DHT22;21342;48.786;9.166;2022-11-20T06:49:04;7.00;99.90
33382;DHT22;21342;48.786;9.166;2022-11-20T06:51:31;7.00;99.90
33382;DHT22;21342;48.786;9.166;2022-11-20T06:53:59;7.10;99.90
33382;DHT22;21342;48.786;9.166;2022-11-20T06:56:28;7.10;99.90
33382;DHT22;21342;48.786;9.166;2022-11-20T06:58:55;7.00;99.90
33382;DHT22;21342;48.786;9.166;2022-11-20T07:01:22;7.00;99.90
33382;DHT22;21342;48.786;9.166;2022-11-20T07:03:50;7.00;99.90
33382;DHT22;21342;48.786;9.166;2022-11-20T07:06:17;6.90;99.90
33382;DHT22;21342;48.786;9.166;2022-11-20T07:08:45;7.00;99.90
33382;DHT22;21342;48.786;9.166;2022-11-20T07:11:12;7.00;99.90
33382;DHT22;21342;48.786;9.166;2022-11-20T07:13:41;7.00;99.90
33382;DHT22;21342;48.786;9.166;2022-11-20T07:16:09;7.10;99.90
33382;DHT22;21342;48.786;9.166;2022-11-20T07:18:36;7.10;99.90
33382;DHT22;21342;48.786;9.166;2022-11-20T07:21:05;7.10;99.90
33382;DHT22;21342;48.786;9.166;2022-11-20T07:23:33;7.10;99.90
33382;DHT22;21342;48.786;9.166;2022-11-20T07:26:03;7.20;99.90
33382;DHT22;21342;48.786;9.166;2022-11-20T07:28:30;7.20;99.90
33382;DHT22;21342;48.786;9.166;2022-11-20T07:30:59;7.20;99.90
33382;DHT22;21342;48.786;9.166;2022-11-20T07:33:26;7.20;99.90
33382;DHT22;21342;48.786;9.166;2022-11-20T07:35:54;7.20;99.90
33382;DHT22;21342;48.786;9.166;2022-11-20T07:38:21;7.30;99.90
33382;DHT22;21342;48.786;9.166;2022-11-20T07:40:52;7.40;99.90
33382;DHT22;21342;48.786;9.166;2022-11-20T07:43:20;7.30;99.90
33382;DHT22;21342;48.786;9.166;2022-11-20T07:45:47;7.30;99.90
33382;DHT22;21342;48.786;9.166;2022-11-20T07:48:16;7.30;99.90
33382;DHT22;21342;48.786;9.166;2022-11-20T07:50:43;7.30;99.90
33382;DHT22;21342;48.786;9.166;2022-11-20T07:53:10;7.40;99.90
33382;DHT22;21342;48.786;9.166;2022-11-20T07:55:39;7.40;99.90
33382;DHT22;21342;48.786;9.166;2022-11-20T07:58:06;7.40;99.90
33382;DHT22;21342;48.786;9.166;2022-11-20T08:00:34;7.40;99.90
33382;DHT22;21342;48.786;9.166;2022-11-20T08:03:03;7.30;99.90
33382;DHT22;21342;48.786;9.166;2022-11-20T08:05:32;7.40;99.90
33382;DHT22;21342;48.786;9.166;2022-11-20T08:07:59;7.40;99.90
33382;DHT22;21342;48.786;9.166;2022-11-20T08:10:26;7.50;99.90
33382;DHT22;21342;48.786;9.166;2022-11-20T08:12:54;7.60;99.90
33382;DHT22;21342;48.786;9.166;2022-11-20T08:15:39;7.60;99.90
33382;DHT22;21342;48.786;9.166;2022-11-20T08:18:08;7.70;99.90
33382;DHT22;21342;48.786;9.166;2022-11-20T08:20:38;7.70;99.90
33382;DHT22;21342;48.786;9.166;2022-11-20T08:23:06;7.70;99.90
33382;DHT22;21342;48.786;9.166;2022-11-20T08:25:35;7.70;99.90
33382;DHT22;21342;48.786;9.166;2022-11-20T08:28:05;7.70;99.90
33382;DHT22;21342;48.786;9.166;2022-11-20T08:30:33;7.60;99.90
33382;DHT22;21342;48.786;9.166;2022-11-20T08:33:02;7.60;99.90
33382;DHT22;21342;48.786;9.166;2022-11-20T08:35:33;7.70;99.90
33382;DHT22;21342;48.786;9.166;2022-11-20T08:38:03;7.80;99.90
33382;DHT22;21342;48.786;9.166;2022-11-20T08:40:31;7.80;99.90
33382;DHT22;21342;48.786;9.166;2022-11-20T08:42:58;7.90;99.90
33382;DHT22;21342;48.786;9.166;2022-11-20T08:45:26;7.90;99.90
33382;DHT22;21342;48.786;9.166;2022-11-20T08:47:59;7.90;99.90
33382;DHT22;21342;48.786;9.166;2022-11-20T08:50:26;8.00;99.90
33382;DHT22;21342;48.786;9.166;2022-11-20T08:52:53;8.10;99.90
33382;DHT22;21342;48.786;9.166;2022-11-20T08:55:22;8.10;99.90
33382;DHT22;21342;48.786;9.166;2022-11-20T08:57:49;8.20;99.90
33382;DHT22;21342;48.786;9.166;2022-11-20T09:00:17;8.50;99.90
33382;DHT22;21342;48.786;9.166;2022-11-20T09:02:44;8.60;99.90
33382;DHT22;21342;48.786;9.166;2022-11-20T09:05:12;8.50;99.90
33382;DHT22;21342;48.786;9.166;2022-11-20T09:07:39;8.60;99.90
33382;DHT22;21342;48.786;9.166;2022-11-20T09:10:07;8.60;99.90
33382;DHT22;21342;48.786;9.166;2022-11-20T09:12:37;8.70;99.90
33382;DHT22;21342;48.786;9.166;2022-11-20T09:15:05;8.60;99.90
33382;DHT22;21342;48.786;9.166;2022-11-20T09:17:32;8.60;99.90
33382;DHT22;21342;48.786;9.166;2022-11-20T09:19:59;8.60;99.90
33382;DHT22;21342;48.786;9.166;2022-11-20T09:22:27;8.50;99.90
33382;DHT22;21342;48.786;9.166;2022-11-20T09:24:54;8.40;99.90
33382;DHT22;21342;48.786;9.166;2022-11-20T09:27:21;8.30;99.90
33382;DHT22;21342;48.786;9.166;2022-11-20T09:29:50;8.30;99.90
33382;DHT22;21342;48.786;9.166;2022-11-20T09:32:17;8.40;99.90
33382;DHT22;21342;48.786;9.166;2022-11-20T09:34:45;8.50;99.90
33382;DHT22;21342;48.786;9.166;2022-11-20T09:37:12;8.50;99.90
33382;DHT22;21342;48.786;9.166;2022-11-20T09:39:39;8.50;99.90
33382;DHT22;21342;48.786;9.166;2022-11-20T09:42:31;8.40;99.90
33382;DHT22;21342;48.786;9.166;2022-11-20T09:45:18;8.30;99.90
33382;DHT22;21342;48.786;9.166;2022-11-20T09:48:11;8.40;99.90
33382;DHT22;21342;48.786;9.166;2022-11-20T09:50:46;8.40;99.90
33382;DHT22;21342;48.786;9.166;2022-11-20T09:53:24;8.50;99.90
33382;DHT22;21342;48.786;9.166;2022-11-20T09:55:55;8.30;99.90
33382;DHT22;21342;48.786;9.166;2022-11-20T09:58:28;8.40;99.90
33382;DHT22;21342;48.786;9.166;2022-11-20T10:01:07;8.50;99.90
33382;DHT22;21342;48.786;9.166;2022-11-20T10:03:39;8.60;99.90
33382;DHT22;21342;48.786;9.166;2022-11-20T10:06:13;8.50;99.90
33382;DHT22;21342;48.786;9.166;2022-11-20T10:08:47;8.50;99.90
33382;DHT22;21342;48.786;9.166;2022-11-20T10:11:21;8.40;99.90
33382;DHT22;21342;48.786;9.166;2022-11-20T10:14:00;8.30;99.90
33382;DHT22;21342;48.786;9.166;2022-11-20T10:16:40;8.30;99.90
33382;DHT22;21342;48.786;9.166;2022-11-20T10:19:23;8.30;99.90
33382;DHT22;21342;48.786;9.166;2022-11-20T10:22:03;8.20;99.90
33382;DHT22;21342;48.786;9.166;2022-11-20T10:24:43;8.20;99.90
33382;DHT22;21342;48.786;9.166;2022-11-20T10:27:29;8.20;99.90
33382;DHT22;21342;48.786;9.166;2022-11-20T10:30:02;8.10;99.90
33382;DHT22;21342;48.786;9.166;2022-11-20T10:32:35;7.80;99.90
33382;DHT22;21342;48.786;9.166;2022-11-20T10:35:10;7.80;99.90
33382;DHT22;21342;48.786;9.166;2022-11-20T10:37:44;7.80;99.90
33382;DHT22;21342;48.786;9.166;2022-11-20T10:40:20;7.60;99.90
33382;DHT22;21342;48.786;9.166;2022-11-20T10:42:51;7.50;99.90
33382;DHT22;21342;48.786;9.166;2022-11-20T10:48:19;7.60;99.90
33382;DHT22;21342;48.786;9.166;2022-11-20T10:50:59;7.50;99.90
33382;DHT22;21342;48.786;9.166;2022-11-20T10:53:44;7.60;99.90
33382;DHT22;21342;48.786;9.166;2022-11-20T10:56:19;7.60;99.90
33382;DHT22;21342;48.786;9.166;2022-11-20T10:59:00;7.60;99.90
33382;DHT22;21342;48.786;9.166;2022-11-20T11:01:29;7.50;99.90
33382;DHT22;21342;48.786;9.166;2022-11-20T11:03:58;7.50;99.90
33382;DHT22;21342;48.786;9.166;2022-11-20T11:06:32;7.60;99.90
33382;DHT22;21342;48.786;9.166;2022-11-20T11:09:04;7.70;99.90
33382;DHT22;21342;48.786;9.166;2022-11-20T11:11:38;7.80;99.90
33382;DHT22;21342;48.786;9.166;2022-11-20T11:14:06;7.80;99.90
33382;DHT22;21342;48.786;9.166;2022-11-20T11:16:34;7.70;99.90
33382;DHT22;21342;48.786;9.166;2022-11-20T11:19:10;7.90;99.90
33382;DHT22;21342;48.786;9.166;2022-11-20T11:21:38;7.90;99.90
33382;DHT22;21342;48.786;9.166;2022-11-20T11:24:23;7.80;99.90
33382;DHT22;21342;48.786;9.166;2022-11-20T11:26:53;8.00;99.90
33382;DHT22;21342;48.786;9.166;2022-11-20T11:29:22;8.30;99.90
33382;DHT22;21342;48.786;9.166;2022-11-20T11:31:49;9.20;99.90
33382;DHT22;21342;48.786;9.166;2022-11-20T11:34:18;9.40;99.90
33382;DHT22;21342;48.786;9.166;2022-11-20T11:36:54;10.10;99.90
33382;DHT22;21342;48.786;9.166;2022-11-20T11:39:22;10.50;99.90
33382;DHT22;21342;48.786;9.166;2022-11-20T11:41:50;11.00;99.90
33382;DHT22;21342;48.786;9.166;2022-11-20T11:44:20;10.70;99.90
33382;DHT22;21342;48.786;9.166;2022-11-20T11:47:08;10.60;99.90
33382;DHT22;21342;48.786;9.166;2022-11-20T11:49:38;9.70;99.90
33382;DHT22;21342;48.786;9.166;2022-11-20T11:52:12;9.70;99.90
33382;DHT22;21342;48.786;9.166;2022-11-20T11:54:45;9.60;99.90
33382;DHT22;21342;48.786;9.166;2022-11-20T11:57:20;9.80;99.90
33382;DHT22;21342;48.786;9.166;2022-11-20T11:59:59;10.10;99.90
33382;DHT22;21342;48.786;9.166;2022-11-20T12:02:36;10.20;99.90
33382;DHT22;21342;48.786;9.166;2022-11-20T12:05:16;10.10;99.90
33382;DHT22;21342;48.786;9.166;2022-11-20T12:07:47;10.10;99.90
33382;DHT22;21342;48.786;9.166;2022-11-20T12:10:19;10.10;99.90
33382;DHT22;21342;48.786;9.166;2022-11-20T12:12:51;9.90;99.90
33382;DHT22;21342;48.786;9.166;2022-11-20T12:15:27;9.80;99.90
33382;DHT22;21342;48.786;9.166;2022-11-20T12:17:55;9.90;99.90
33382;DHT22;21342;48.786;9.166;2022-11-20T12:20:28;9.70;99.90
33382;DHT22;21342;48.786;9.166;2022-11-20T12:23:01;9.60;99.90
33382;DHT22;21342;48.786;9.166;2022-11-20T12:25:34;9.60;99.90
33382;DHT22;21342;48.786;9.166;2022-11-20T12:28:20;9.80;99.90
33382;DHT22;21342;48.786;9.166;2022-11-20T12:31:00;9.90;99.90
33382;DHT22;21342;48.786;9.166;2022-11-20T12:33:56;9.80;99.90
33382;DHT22;21342;48.786;9.166;2022-11-20T12:36:38;9.80;99.90
33382;DHT22;21342;48.786;9.166;2022-11-20T12:39:28;9.90;99.90
33382;DHT22;21342;48.786;9.166;2022-11-20T12:42:22;9.80;99.90
33382;DHT22;21342;48.786;9.166;2022-11-20T12:45:20;9.80;99.90
33382;DHT22;21342;48.786;9.166;2022-11-20T12:48:08;9.90;99.90
33382;DHT22;21342;48.786;9.166;2022-11-20T12:50:49;9.80;99.90
33382;DHT22;21342;48.786;9.166;2022-11-20T12:53:27;9.80;99.90
33382;DHT22;21342;48.786;9.166;2022-11-20T12:56:05;9.80;99.90
33382;DHT22;21342;48.786;9.166;2022-11-20T12:58:41;10.00;99.90
33382;DHT22;21342;48.786;9.166;2022-11-20T13:01:21;9.90;99.90
33382;DHT22;21342;48.786;9.166;2022-11-20T13:04:13;9.70;99.90
33382;DHT22;21342;48.786;9.166;2022-11-20T13:06:44;9.80;99.90
33382;DHT22;21342;48.786;9.166;2022-11-20T13:09:16;10.00;99.90
33382;DHT22;21342;48.786;9.166;2022-11-20T13:11:48;10.20;99.90
33382;DHT22;21342;48.786;9.166;2022-11-20T13:14:26;10.10;99.90
33382;DHT22;21342;48.786;9.166;2022-11-20T13:16:59;9.80;99.90
33382;DHT22;21342;48.786;9.166;2022-11-20T13:21:55;9.60;99.90
33382;DHT22;21342;48.786;9.166;2022-11-20T13:24:26;9.60;99.90
33382;DHT22;21342;48.786;9.166;2022-11-20T13:27:03;9.50;99.90
33382;DHT22;21342;48.786;9.166;2022-11-20T13:29:31;9.50;99.90
33382;DHT22;21342;48.786;9.166;2022-11-20T13:32:04;9.40;99.90
33382;DHT22;21342;48.786;9.166;2022-11-20T13:34:34;9.20;99.90
33382;DHT22;21342;48.786;9.166;2022-11-20T13:37:02;9.30;99.90
33382;DHT22;21342;48.786;9.166;2022-11-20T13:39:33;9.30;99.90
33382;DHT22;21342;48.786;9.166;2022-11-20T13:42:02;9.20;99.90
33382;DHT22;21342;48.786;9.166;2022-11-20T13:44:35;9.10;99.90
33382;DHT22;21342;48.786;9.166;2022-11-20T13:47:03;9.20;99.90
33382;DHT22;21342;48.786;9.166;2022-11-20T13:49:32;9.10;99.90
33382;DHT22;21342;48.786;9.166;2022-11-20T13:52:20;9.10;99.90
33382;DHT22;21342;48.786;9.166;2022-11-20T13:55:04;9.10;99.90
33382;DHT22;21342;48.786;9.166;2022-11-20T13:57:52;9.00;99.90
33382;DHT22;21342;48.786;9.166;2022-11-20T14:00:24;8.90;99.90
33382;DHT22;21342;48.786;9.166;2022-11-20T14:03:01;8.90;99.90
33382;DHT22;21342;48.786;9.166;2022-11-20T14:05:32;8.80;99.90
33382;DHT22;21342;48.786;9.166;2022-11-20T14:08:03;8.70;99.90
33382;DHT22;21342;48.786;9.166;2022-11-20T14:10:33;8.60;99.90
33382;DHT22;21342;48.786;9.166;2022-11-20T14:13:10;8.50;99.90
33382;DHT22;21342;48.786;9.166;2022-11-20T14:15:38;8.50;99.90
33382;DHT22;21342;48.786;9.166;2022-11-20T14:18:13;8.40;99.90
33382;DHT22;21342;48.786;9.166;2022-11-20T14:20:41;8.30;99.90
33382;DHT22;21342;48.786;9.166;2022-11-20T14:23:10;8.20;99.90
33382;DHT22;21342;48.786;9.166;2022-11-20T14:25:42;8.20;99.90
33382;DHT22;21342;48.786;9.166;2022-11-20T14:28:17;8.20;99.90
33382;DHT22;21342;48.786;9.166;2022-11-20T14:30:48;8.10;99.90
33382;DHT22;21342;48.786;9.166;2022-11-20T14:33:16;8.20;99.90
33382;DHT22;21342;48.786;9.166;2022-11-20T14:35:46;8.20;99.90
33382;DHT22;21342;48.786;9.166;2022-11-20T14:38:17;8.30;99.90
33382;DHT22;21342;48.786;9.166;2022-11-20T14:40:46;8.30;99.90
33382;DHT22;21342;48.786;9.166;2022-11-20T14:43:19;8.30;99.90
33382;DHT22;21342;48.786;9.166;2022-11-20T14:45:57;8.30;99.90
33382;DHT22;21342;48.786;9.166;2022-11-20T14:48:29;8.50;99.90
33382;DHT22;21342;48.786;9.166;2022-11-20T14:50:57;8.30;99.90
33382;DHT22;21342;48.786;9.166;2022-11-20T14:53:25;8.30;99.90
33382;DHT22;21342;48.786;9.166;2022-11-20T14:55:59;8.20;99.90
33382;DHT22;21342;48.786;9.166;2022-11-20T14:58:28;8.20;99.90
33382;DHT22;21342;48.786;9.166;2022-11-20T15:00:59;8.20;99.90
33382;DHT22;21342;48.786;9.166;2022-11-20T15:03:32;8.30;99.90
33382;DHT22;21342;48.786;9.166;2022-11-20T15:05:59;8.30;99.90
33382;DHT22;21342;48.786;9.166;2022-11-20T15:08:27;8.30;99.90
33382;DHT22;21342;48.786;9.166;2022-11-20T15:10:54;8.30;99.90
33382;DHT22;21342;48.786;9.166;2022-11-20T15:13:29;8.30;99.90
33382;DHT22;21342;48.786;9.166;2022-11-20T15:15:58;8.30;99.90
33382;DHT22;21342;48.786;9.166;2022-11-20T15:18:28;8.30;99.90
33382;DHT22;21342;48.786;9.166;2022-11-20T15:20:58;8.40;99.90
33382;DHT22;21342;48.786;9.166;2022-11-20T15:23:28;8.30;99.90
33382;DHT22;21342;48.786;9.166;2022-11-20T15:25:56;8.30;99.90
33382;DHT22;21342;48.786;9.166;2022-11-20T15:28:29;8.20;99.90
33382;DHT22;21342;48.786;9.166;2022-11-20T15:30:58;8.30;99.90
33382;DHT22;21342;48.786;9.166;2022-11-20T15:33:25;8.30;99.90
33382;DHT22;21342;48.786;9.166;2022-11-20T15:35:52;8.30;99.90
33382;DHT22;21342;48.786;9.166;2022-11-20T15:38:20;8.30;99.90
33382;DHT22;21342;48.786;9.166;2022-11-20T15:40:47;8.20;99.90
33382;DHT22;21342;48.786;9.166;2022-11-20T15:43:14;8.20;99.90
33382;DHT22;21342;48.786;9.166;2022-11-20T15:45:45;8.10;99.90
33382;DHT22;21342;48.786;9.166;2022-11-20T15:48:16;8.10;99.90
33382;DHT22;21342;48.786;9.166;2022-11-20T15:50:49;8.10;99.90
33382;DHT22;21342;48.786;9.166;2022-11-20T15:53:18;8.00;99.90
33382;DHT22;21342;48.786;9.166;2022-11-20T15:55:45;8.00;99.90
33382;DHT22;21342;48.786;9.166;2022-11-20T15:58:13;8.00;99.90
33382;DHT22;21342;48.786;9.166;2022-11-20T16:00:43;8.00;99.90
33382;DHT22;21342;48.786;9.166;2022-11-20T16:03:11;8.00;99.90
33382;DHT22;21342;48.786;9.166;2022-11-20T16:05:39;8.10;99.90
33382;DHT22;21342;48.786;9.166;2022-11-20T16:08:06;8.00;99.90
33382;DHT22;21342;48.786;9.166;2022-11-20T16:10:34;7.90;99.90